Davis Vantage Pro 2 Aktiv Plus 6163EU 24h Lüftung - Paderborn Kernstadt
Wetterdaten: aktuell Montag, 31.08.2026 22:56
Datum Zeit Temp. I. Temp. A. Feuchte I. Feuchte A. Luftdruck Regen Wind Richtung Richtung Sonnenschein ET UV Solar Taupunkt Windchill Windböen
31.08.2026 22:56 24,1 °C 15,6 °C 55 % 86 % 1015,3 hPa 0,0 l/m² 6,4 km/h (2 Bft) SW 234 ° 0 min 0,000 mm 0,0 UV-I 0 W/m² 13,3 °C 15,6 °C 16,1 km/h (3 Bft)
31.08.2026 21:56 23,9 °C 15,2 °C 55 % 87 % 1014,8 hPa 0,0 l/m² 6,1 km/h (2 Bft) S 188 ° 0 min 0,000 mm 0,0 UV-I 0 W/m² 13,0 °C 15,2 °C 12,9 km/h (3 Bft)
31.08.2026 20:56 23,4 °C 15,1 °C 54 % 88 % 1014,2 hPa 0,2 l/m² 2,7 km/h (1 Bft) S 184 ° 0 min 0,000 mm 0,0 UV-I 0 W/m² 13,1 °C 15,1 °C 4,8 km/h (1 Bft)
31.08.2026 19:56 24,5 °C 15,4 °C 54 % 86 % 1013,4 hPa 0,4 l/m² 2,1 km/h (1 Bft) W-SW 251 ° 0 min 0,000 mm 0,0 UV-I 0 W/m² 13,1 °C 15,4 °C 6,4 km/h (2 Bft)
31.08.2026 18:56 24,8 °C 16,5 °C 53 % 87 % 1012,5 hPa 0,4 l/m² 2,1 km/h (1 Bft) S-SW 208 ° 10 min 0,000 mm 0,0 UV-I 14 W/m² 14,3 °C 16,5 °C 9,7 km/h (2 Bft)
31.08.2026 17:56 24,4 °C 16,3 °C 54 % 87 % 1012,4 hPa 5,8 l/m² 0,4 km/h (0 Bft) SW 228 ° 0 min 0,000 mm 0,0 UV-I 137 W/m² 14,1 °C 16,3 °C 1,6 km/h (1 Bft)
31.08.2026 16:56 24,3 °C 18,0 °C 54 % 82 % 1012,2 hPa 0,8 l/m² 13,6 km/h (3 Bft) S 186 ° 0 min 0,000 mm 0,0 UV-I 0 W/m² 14,9 °C 15,2 °C 24,1 km/h (4 Bft)
31.08.2026 15:56 24,4 °C 18,8 °C 52 % 79 % 1011,5 hPa 0,0 l/m² 3,8 km/h (1 Bft) SW 227 ° 4 min 0,000 mm 0,0 UV-I 60 W/m² 15,1 °C 18,8 °C 6,4 km/h (2 Bft)
31.08.2026 14:56 23,6 °C 17,4 °C 53 % 81 % 1011,6 hPa 0,8 l/m² 6,8 km/h (2 Bft) W-SW 248 ° 8 min 0,000 mm 0,8 UV-I 146 W/m² 14,1 °C 17,2 °C 12,9 km/h (3 Bft)
31.08.2026 13:56 24,6 °C 22,4 °C 49 % 60 % 1010,8 hPa 0,0 l/m² 12,8 km/h (3 Bft) S-SW 209 ° 32 min 0,000 mm 2,5 UV-I 872 W/m² 14,2 °C 20,6 °C 19,3 km/h (3 Bft)
31.08.2026 12:56 24,2 °C 19,9 °C 50 % 69 % 1011,3 hPa 0,0 l/m² 14,2 km/h (3 Bft) SW 219 ° 14 min 0,000 mm 1,8 UV-I 243 W/m² 14,0 °C 17,3 °C 25,7 km/h (4 Bft)
31.08.2026 11:56 24,1 °C 22,1 °C 50 % 63 % 1011,1 hPa 0,0 l/m² 6,9 km/h (2 Bft) SW 222 ° 12 min 0,000 mm 1,0 UV-I 197 W/m² 14,7 °C 21,9 °C 14,5 km/h (3 Bft)
31.08.2026 10:56 23,7 °C 21,4 °C 51 % 66 % 1011,3 hPa 0,0 l/m² 8,3 km/h (2 Bft) S-SW 192 ° 16 min 0,000 mm 0,9 UV-I 323 W/m² 14,8 °C 20,7 °C 16,1 km/h (3 Bft)
31.08.2026 09:56 23,6 °C 20,6 °C 52 % 68 % 1011,6 hPa 0,0 l/m² 11,8 km/h (2 Bft) W-SW 244 ° 40 min 0,000 mm 0,9 UV-I 466 W/m² 14,5 °C 18,8 °C 25,7 km/h (4 Bft)
31.08.2026 08:56 23,1 °C 19,2 °C 54 % 75 % 1011,3 hPa 0,0 l/m² 5,7 km/h (2 Bft) S-SW 202 ° 32 min 0,000 mm 0,0 UV-I 79 W/m² 14,7 °C 19,2 °C 9,7 km/h (2 Bft)
31.08.2026 07:56 23,2 °C 18,1 °C 54 % 78 % 1011,0 hPa 0,0 l/m² 7,0 km/h (2 Bft) S-SW 192 ° 0 min 0,000 mm 0,0 UV-I 35 W/m² 14,2 °C 17,8 °C 11,3 km/h (2 Bft)
31.08.2026 06:56 23,3 °C 18,3 °C 52 % 75 % 1010,6 hPa 0,0 l/m² 13,4 km/h (3 Bft) S-SW 198 ° 0 min 0,000 mm 0,0 UV-I 0 W/m² 13,8 °C 15,6 °C 24,1 km/h (4 Bft)
31.08.2026 05:56 23,3 °C 18,1 °C 50 % 71 % 1010,2 hPa 0,0 l/m² 5,1 km/h (1 Bft) S 182 ° 0 min 0,000 mm 0,0 UV-I 0 W/m² 12,8 °C 18,1 °C 8,0 km/h (2 Bft)
31.08.2026 04:56 23,2 °C 18,8 °C 50 % 68 % 1010,1 hPa 0,0 l/m² 6,2 km/h (2 Bft) S-SO 154 ° 0 min 0,000 mm 0,0 UV-I 0 W/m² 12,8 °C 18,8 °C 12,9 km/h (3 Bft)
31.08.2026 03:56 23,7 °C 18,6 °C 50 % 69 % 1010,4 hPa 0,0 l/m² 2,8 km/h (1 Bft) S-SO 149 ° 0 min 0,000 mm 0,0 UV-I 0 W/m² 12,8 °C 18,6 °C 8,0 km/h (2 Bft)
31.08.2026 02:56 23,4 °C 17,8 °C 51 % 73 % 1011,2 hPa 0,0 l/m² 1,3 km/h (1 Bft) S-SO 158 ° 0 min 0,000 mm 0,0 UV-I 0 W/m² 12,9 °C 17,8 °C 4,8 km/h (1 Bft)
31.08.2026 01:56 23,7 °C 17,8 °C 51 % 74 % 1011,5 hPa 0,0 l/m² 3,5 km/h (1 Bft) S-SO 149 ° 0 min 0,000 mm 0,0 UV-I 0 W/m² 13,1 °C 17,8 °C 8,0 km/h (2 Bft)
31.08.2026 00:56 23,8 °C 17,3 °C 51 % 77 % 1011,9 hPa 0,0 l/m² 0,8 km/h (0 Bft) SO 137 ° 0 min 0,000 mm 0,0 UV-I 0 W/m² 13,2 °C 17,3 °C 6,4 km/h (2 Bft)
30.08.2026 23:56 23,7 °C 17,3 °C 52 % 77 % 1012,4 hPa 0,0 l/m² 4,1 km/h (1 Bft) S-SO 147 ° 0 min 0,000 mm 0,0 UV-I 0 W/m² 13,2 °C 17,3 °C 6,4 km/h (2 Bft)
30.08.2026 23:00 23,9 °C 17,8 °C 51 % 77 % 1012,5 hPa 0,0 l/m² 2,9 km/h (1 Bft) S-SO 148 ° 0 min 0,000 mm 0,0 UV-I 0 W/m² 13,7 °C 17,8 °C 6,4 km/h (2 Bft)
_ Min-Zeit 07:32 20:40 12:28 12:16 04:48 - 23:50 - - - - - - 05:30 17:24 23:48
Minimum _ 23,1 °C 14,9 °C 47 % 58 % 1009,9 hPa - 0,0 km/h (0 Bft) - - - - - - 12,5 °C 13,7 °C 0,0 km/h (0 Bft)
_ Max-Zeit 14:06 14:00 08:58 18:02 22:50 17:24 14:38 - - 08:12 23:00 13:46 13:38 15:28 11:54 14:34
Maximum _ 24,9 °C 23,1 °C 55 % 88 % 1015,3 hPa 1,8 l/m² 21,7 km/h
W (4 Bft)
- - 2 min 0,000 mm 2,8 UV-I 889 W/m² 15,7 °C 22,2 °C 40,2 km/h
W (6 Bft)
Durchschnitt _ 23,9 °C 18,2 °C 52 % 76 % 1011,8 hPa #8,4 l/m² 5,4 km/h (2 Bft) S-SW - #2:48 h #0,000 mm 1,2 UV-I 189 W/m² 13,8 °C 17,8 °C 11,7 km/h (2 Bft)
© Andreas P. Günther